sensor_id;sensor_type;location;lat;lon;timestamp;temperature;humidity
21216;DHT22;10765;50.954;5.322;2022-12-11T00:00:44;2.10;1.00
21216;DHT22;10765;50.954;5.322;2022-12-11T00:03:11;2.10;1.00
21216;DHT22;10765;50.954;5.322;2022-12-11T00:05:39;2.20;1.00
21216;DHT22;10765;50.954;5.322;2022-12-11T00:08:06;2.10;1.00
21216;DHT22;10765;50.954;5.322;2022-12-11T00:10:34;2.10;1.00
21216;DHT22;10765;50.954;5.322;2022-12-11T00:13:01;2.20;1.00
21216;DHT22;10765;50.954;5.322;2022-12-11T00:15:28;2.20;1.00
21216;DHT22;10765;50.954;5.322;2022-12-11T00:17:55;2.20;1.00
21216;DHT22;10765;50.954;5.322;2022-12-11T00:20:22;2.20;1.00
21216;DHT22;10765;50.954;5.322;2022-12-11T00:22:49;2.20;1.00
21216;DHT22;10765;50.954;5.322;2022-12-11T00:25:16;2.10;1.00
21216;DHT22;10765;50.954;5.322;2022-12-11T00:27:46;2.10;1.00
21216;DHT22;10765;50.954;5.322;2022-12-11T00:30:13;2.00;1.00
21216;DHT22;10765;50.954;5.322;2022-12-11T00:32:40;2.10;1.00
21216;DHT22;10765;50.954;5.322;2022-12-11T00:35:08;2.10;1.00
21216;DHT22;10765;50.954;5.322;2022-12-11T00:37:35;2.00;1.00
21216;DHT22;10765;50.954;5.322;2022-12-11T00:40:02;2.00;1.00
21216;DHT22;10765;50.954;5.322;2022-12-11T00:42:29;2.00;1.00
21216;DHT22;10765;50.954;5.322;2022-12-11T00:44:58;2.00;1.00
21216;DHT22;10765;50.954;5.322;2022-12-11T00:47:25;2.00;1.00
21216;DHT22;10765;50.954;5.322;2022-12-11T00:49:51;2.00;1.00
21216;DHT22;10765;50.954;5.322;2022-12-11T00:52:18;1.90;1.00
21216;DHT22;10765;50.954;5.322;2022-12-11T00:54:45;2.00;1.00
21216;DHT22;10765;50.954;5.322;2022-12-11T00:57:12;2.00;1.00
21216;DHT22;10765;50.954;5.322;2022-12-11T00:59:39;2.00;1.00
21216;DHT22;10765;50.954;5.322;2022-12-11T01:02:07;2.10;1.00
21216;DHT22;10765;50.954;5.322;2022-12-11T01:04:34;2.00;1.00
21216;DHT22;10765;50.954;5.322;2022-12-11T01:07:01;2.10;1.00
21216;DHT22;10765;50.954;5.322;2022-12-11T01:09:28;2.10;99.90
21216;DHT22;10765;50.954;5.322;2022-12-11T01:12:13;2.10;1.00
21216;DHT22;10765;50.954;5.322;2022-12-11T01:14:39;2.00;1.00
21216;DHT22;10765;50.954;5.322;2022-12-11T01:17:08;2.00;1.00
21216;DHT22;10765;50.954;5.322;2022-12-11T01:19:35;2.00;1.00
21216;DHT22;10765;50.954;5.322;2022-12-11T01:22:01;2.10;1.00
21216;DHT22;10765;50.954;5.322;2022-12-11T01:24:28;2.10;99.90
21216;DHT22;10765;50.954;5.322;2022-12-11T01:26:55;2.20;1.00
21216;DHT22;10765;50.954;5.322;2022-12-11T01:29:22;2.30;99.90
21216;DHT22;10765;50.954;5.322;2022-12-11T01:31:49;2.20;99.90
21216;DHT22;10765;50.954;5.322;2022-12-11T01:34:17;2.10;99.90
21216;DHT22;10765;50.954;5.322;2022-12-11T01:36:44;2.30;99.90
21216;DHT22;10765;50.954;5.322;2022-12-11T01:39:11;2.20;99.90
21216;DHT22;10765;50.954;5.322;2022-12-11T01:41:38;2.20;99.90
21216;DHT22;10765;50.954;5.322;2022-12-11T01:45:01;2.20;99.90
21216;DHT22;10765;50.954;5.322;2022-12-11T01:46:53;2.40;99.90
21216;DHT22;10765;50.954;5.322;2022-12-11T01:49:24;2.40;99.90
21216;DHT22;10765;50.954;5.322;2022-12-11T01:51:54;2.20;99.90
21216;DHT22;10765;50.954;5.322;2022-12-11T01:54:25;2.30;99.90
21216;DHT22;10765;50.954;5.322;2022-12-11T01:56:56;2.20;99.90
21216;DHT22;10765;50.954;5.322;2022-12-11T01:59:26;2.20;99.90
21216;DHT22;10765;50.954;5.322;2022-12-11T02:01:57;2.30;99.90
21216;DHT22;10765;50.954;5.322;2022-12-11T02:04:27;2.30;99.90
21216;DHT22;10765;50.954;5.322;2022-12-11T02:06:54;2.20;99.90
21216;DHT22;10765;50.954;5.322;2022-12-11T02:09:24;2.10;99.90
21216;DHT22;10765;50.954;5.322;2022-12-11T02:11:58;2.10;99.90
21216;DHT22;10765;50.954;5.322;2022-12-11T02:14:31;2.00;99.90
21216;DHT22;10765;50.954;5.322;2022-12-11T02:17:06;2.00;99.90
21216;DHT22;10765;50.954;5.322;2022-12-11T02:19:51;1.90;99.90
21216;DHT22;10765;50.954;5.322;2022-12-11T02:22:27;1.90;99.90
21216;DHT22;10765;50.954;5.322;2022-12-11T02:25:09;1.90;99.90
21216;DHT22;10765;50.954;5.322;2022-12-11T02:27:43;1.80;99.90
21216;DHT22;10765;50.954;5.322;2022-12-11T02:30:13;1.80;99.90
21216;DHT22;10765;50.954;5.322;2022-12-11T02:32:45;1.80;99.90
21216;DHT22;10765;50.954;5.322;2022-12-11T02:35:16;1.80;99.90
21216;DHT22;10765;50.954;5.322;2022-12-11T02:37:47;1.70;99.90
21216;DHT22;10765;50.954;5.322;2022-12-11T02:40:21;1.80;99.90
21216;DHT22;10765;50.954;5.322;2022-12-11T02:42:50;1.80;99.90
21216;DHT22;10765;50.954;5.322;2022-12-11T02:45:21;1.90;99.90
21216;DHT22;10765;50.954;5.322;2022-12-11T02:47:48;1.80;99.90
21216;DHT22;10765;50.954;5.322;2022-12-11T02:50:19;1.80;99.90
21216;DHT22;10765;50.954;5.322;2022-12-11T02:52:48;1.70;99.90
21216;DHT22;10765;50.954;5.322;2022-12-11T02:55:16;1.60;99.90
21216;DHT22;10765;50.954;5.322;2022-12-11T02:57:46;1.70;99.90
21216;DHT22;10765;50.954;5.322;2022-12-11T03:00:14;1.70;99.90
21216;DHT22;10765;50.954;5.322;2022-12-11T03:02:44;1.80;99.90
21216;DHT22;10765;50.954;5.322;2022-12-11T03:05:13;1.80;99.90
21216;DHT22;10765;50.954;5.322;2022-12-11T03:07:42;1.70;99.90
21216;DHT22;10765;50.954;5.322;2022-12-11T03:10:11;1.80;99.90
21216;DHT22;10765;50.954;5.322;2022-12-11T03:12:42;1.70;99.90
21216;DHT22;10765;50.954;5.322;2022-12-11T03:15:12;1.80;99.90
21216;DHT22;10765;50.954;5.322;2022-12-11T03:17:49;1.80;99.90
21216;DHT22;10765;50.954;5.322;2022-12-11T03:20:26;1.80;99.90
21216;DHT22;10765;50.954;5.322;2022-12-11T03:23:01;1.70;99.90
21216;DHT22;10765;50.954;5.322;2022-12-11T03:25:33;1.70;99.90
21216;DHT22;10765;50.954;5.322;2022-12-11T03:28:06;1.70;99.90
21216;DHT22;10765;50.954;5.322;2022-12-11T03:30:35;1.90;99.90
21216;DHT22;10765;50.954;5.322;2022-12-11T03:33:07;1.90;99.90
21216;DHT22;10765;50.954;5.322;2022-12-11T03:35:38;2.00;99.90
21216;DHT22;10765;50.954;5.322;2022-12-11T03:38:08;1.90;99.90
21216;DHT22;10765;50.954;5.322;2022-12-11T03:40:38;1.80;99.90
21216;DHT22;10765;50.954;5.322;2022-12-11T03:43:07;2.00;99.90
21216;DHT22;10765;50.954;5.322;2022-12-11T03:45:37;1.80;99.90
21216;DHT22;10765;50.954;5.322;2022-12-11T03:48:08;1.80;99.90
21216;DHT22;10765;50.954;5.322;2022-12-11T03:50:36;1.90;99.90
21216;DHT22;10765;50.954;5.322;2022-12-11T03:53:04;2.00;99.90
21216;DHT22;10765;50.954;5.322;2022-12-11T03:55:32;2.10;99.90
21216;DHT22;10765;50.954;5.322;2022-12-11T03:57:59;2.10;99.90
21216;DHT22;10765;50.954;5.322;2022-12-11T04:00:27;2.10;99.90
21216;DHT22;10765;50.954;5.322;2022-12-11T04:02:54;2.10;99.90
21216;DHT22;10765;50.954;5.322;2022-12-11T04:05:44;2.10;99.90
21216;DHT22;10765;50.954;5.322;2022-12-11T04:08:11;2.10;99.90
21216;DHT22;10765;50.954;5.322;2022-12-11T04:10:39;2.00;99.90
21216;DHT22;10765;50.954;5.322;2022-12-11T04:13:06;2.10;99.90
21216;DHT22;10765;50.954;5.322;2022-12-11T04:15:33;2.20;99.90
21216;DHT22;10765;50.954;5.322;2022-12-11T04:17:59;2.20;99.90
21216;DHT22;10765;50.954;5.322;2022-12-11T04:20:45;2.30;99.30
21216;DHT22;10765;50.954;5.322;2022-12-11T04:23:29;2.30;55.10
21216;DHT22;10765;50.954;5.322;2022-12-11T04:26:16;2.30;54.40
21216;DHT22;10765;50.954;5.322;2022-12-11T04:28:44;2.20;56.80
21216;DHT22;10765;50.954;5.322;2022-12-11T04:31:12;2.20;91.70
21216;DHT22;10765;50.954;5.322;2022-12-11T04:33:40;2.10;65.90
21216;DHT22;10765;50.954;5.322;2022-12-11T04:36:09;2.10;98.00
21216;DHT22;10765;50.954;5.322;2022-12-11T04:38:37;2.10;99.90
21216;DHT22;10765;50.954;5.322;2022-12-11T04:41:06;2.10;99.90
21216;DHT22;10765;50.954;5.322;2022-12-11T04:43:33;2.10;99.90
21216;DHT22;10765;50.954;5.322;2022-12-11T04:46:02;2.00;99.90
21216;DHT22;10765;50.954;5.322;2022-12-11T04:48:29;1.90;99.90
21216;DHT22;10765;50.954;5.322;2022-12-11T04:50:56;1.90;99.90
21216;DHT22;10765;50.954;5.322;2022-12-11T04:53:24;2.00;99.90
21216;DHT22;10765;50.954;5.322;2022-12-11T04:55:51;1.90;99.90
21216;DHT22;10765;50.954;5.322;2022-12-11T04:58:18;1.80;99.90
21216;DHT22;10765;50.954;5.322;2022-12-11T05:00:45;1.80;99.90
21216;DHT22;10765;50.954;5.322;2022-12-11T05:03:12;1.80;99.90
21216;DHT22;10765;50.954;5.322;2022-12-11T05:05:39;1.90;99.90
21216;DHT22;10765;50.954;5.322;2022-12-11T05:08:06;1.80;99.90
21216;DHT22;10765;50.954;5.322;2022-12-11T05:10:35;1.70;99.90
21216;DHT22;10765;50.954;5.322;2022-12-11T05:13:02;1.70;99.90
21216;DHT22;10765;50.954;5.322;2022-12-11T05:15:29;1.70;99.90
21216;DHT22;10765;50.954;5.322;2022-12-11T05:17:56;1.70;99.90
21216;DHT22;10765;50.954;5.322;2022-12-11T05:20:22;1.90;99.90
21216;DHT22;10765;50.954;5.322;2022-12-11T05:22:49;1.90;99.90
21216;DHT22;10765;50.954;5.322;2022-12-11T05:25:16;2.00;99.90
21216;DHT22;10765;50.954;5.322;2022-12-11T05:27:45;1.90;99.90
21216;DHT22;10765;50.954;5.322;2022-12-11T05:30:12;1.80;99.90
21216;DHT22;10765;50.954;5.322;2022-12-11T05:32:39;1.90;99.90
21216;DHT22;10765;50.954;5.322;2022-12-11T05:35:06;1.80;99.90
21216;DHT22;10765;50.954;5.322;2022-12-11T05:37:33;1.90;99.90
21216;DHT22;10765;50.954;5.322;2022-12-11T05:40:00;1.80;99.90
21216;DHT22;10765;50.954;5.322;2022-12-11T05:42:27;2.00;99.90
21216;DHT22;10765;50.954;5.322;2022-12-11T05:44:55;2.00;99.90
21216;DHT22;10765;50.954;5.322;2022-12-11T05:47:22;2.00;99.90
21216;DHT22;10765;50.954;5.322;2022-12-11T05:49:50;2.00;96.40
21216;DHT22;10765;50.954;5.322;2022-12-11T05:52:17;1.90;59.90
21216;DHT22;10765;50.954;5.322;2022-12-11T05:54:43;1.80;99.90
21216;DHT22;10765;50.954;5.322;2022-12-11T05:57:10;1.90;99.90
21216;DHT22;10765;50.954;5.322;2022-12-11T05:59:37;1.90;99.90
21216;DHT22;10765;50.954;5.322;2022-12-11T06:02:05;2.00;99.90
21216;DHT22;10765;50.954;5.322;2022-12-11T06:04:32;2.00;96.20
21216;DHT22;10765;50.954;5.322;2022-12-11T06:06:59;2.00;99.90
21216;DHT22;10765;50.954;5.322;2022-12-11T06:09:26;2.00;99.90
21216;DHT22;10765;50.954;5.322;2022-12-11T06:11:53;2.00;96.30
21216;DHT22;10765;50.954;5.322;2022-12-11T06:14:20;2.00;37.20
21216;DHT22;10765;50.954;5.322;2022-12-11T06:16:47;1.90;96.10
21216;DHT22;10765;50.954;5.322;2022-12-11T06:19:16;1.80;99.90
21216;DHT22;10765;50.954;5.322;2022-12-11T06:21:44;1.80;99.90
21216;DHT22;10765;50.954;5.322;2022-12-11T06:24:13;1.80;99.90
21216;DHT22;10765;50.954;5.322;2022-12-11T06:26:40;1.70;99.90
21216;DHT22;10765;50.954;5.322;2022-12-11T06:29:07;1.70;99.90
21216;DHT22;10765;50.954;5.322;2022-12-11T06:31:34;1.90;99.90
21216;DHT22;10765;50.954;5.322;2022-12-11T06:34:01;1.90;99.90
21216;DHT22;10765;50.954;5.322;2022-12-11T06:36:29;1.80;99.90
21216;DHT22;10765;50.954;5.322;2022-12-11T06:38:56;1.70;99.90
21216;DHT22;10765;50.954;5.322;2022-12-11T06:41:23;1.70;99.90
21216;DHT22;10765;50.954;5.322;2022-12-11T06:43:50;1.70;99.90
21216;DHT22;10765;50.954;5.322;2022-12-11T06:46:18;1.80;99.90
21216;DHT22;10765;50.954;5.322;2022-12-11T06:48:46;1.80;99.90
21216;DHT22;10765;50.954;5.322;2022-12-11T06:51:14;1.80;99.90
21216;DHT22;10765;50.954;5.322;2022-12-11T06:53:43;1.70;99.90
21216;DHT22;10765;50.954;5.322;2022-12-11T06:56:12;1.70;99.90
21216;DHT22;10765;50.954;5.322;2022-12-11T06:58:40;1.80;99.90
21216;DHT22;10765;50.954;5.322;2022-12-11T07:01:14;1.90;99.90
21216;DHT22;10765;50.954;5.322;2022-12-11T07:03:41;1.90;99.90
21216;DHT22;10765;50.954;5.322;2022-12-11T07:06:08;1.90;99.50
21216;DHT22;10765;50.954;5.322;2022-12-11T07:08:35;1.80;66.60
21216;DHT22;10765;50.954;5.322;2022-12-11T07:11:05;1.70;91.70
21216;DHT22;10765;50.954;5.322;2022-12-11T07:13:32;1.80;99.90
21216;DHT22;10765;50.954;5.322;2022-12-11T07:15:59;1.70;95.00
21216;DHT22;10765;50.954;5.322;2022-12-11T07:18:26;1.70;99.90
21216;DHT22;10765;50.954;5.322;2022-12-11T07:20:53;1.60;99.90
21216;DHT22;10765;50.954;5.322;2022-12-11T07:23:20;1.60;99.90
21216;DHT22;10765;50.954;5.322;2022-12-11T07:25:47;1.60;99.90
21216;DHT22;10765;50.954;5.322;2022-12-11T07:28:16;1.70;99.90
21216;DHT22;10765;50.954;5.322;2022-12-11T07:30:43;1.80;99.90
21216;DHT22;10765;50.954;5.322;2022-12-11T07:33:10;1.70;99.90
21216;DHT22;10765;50.954;5.322;2022-12-11T07:35:37;1.80;98.70
21216;DHT22;10765;50.954;5.322;2022-12-11T07:38:04;1.70;99.90
21216;DHT22;10765;50.954;5.322;2022-12-11T07:40:32;1.60;99.90
21216;DHT22;10765;50.954;5.322;2022-12-11T07:42:59;1.60;99.90
21216;DHT22;10765;50.954;5.322;2022-12-11T07:45:28;1.50;99.90
21216;DHT22;10765;50.954;5.322;2022-12-11T07:47:55;1.40;99.90
21216;DHT22;10765;50.954;5.322;2022-12-11T07:50:21;1.30;99.90
21216;DHT22;10765;50.954;5.322;2022-12-11T07:52:48;1.50;99.90
21216;DHT22;10765;50.954;5.322;2022-12-11T07:55:15;1.60;99.90
21216;DHT22;10765;50.954;5.322;2022-12-11T07:57:42;1.70;99.90
21216;DHT22;10765;50.954;5.322;2022-12-11T08:00:10;1.70;99.90
21216;DHT22;10765;50.954;5.322;2022-12-11T08:02:39;1.70;99.90
21216;DHT22;10765;50.954;5.322;2022-12-11T08:05:07;1.70;99.90
21216;DHT22;10765;50.954;5.322;2022-12-11T08:07:34;1.60;99.90
21216;DHT22;10765;50.954;5.322;2022-12-11T08:10:02;1.60;99.90
21216;DHT22;10765;50.954;5.322;2022-12-11T08:12:29;1.70;99.90
21216;DHT22;10765;50.954;5.322;2022-12-11T08:14:56;1.80;99.90
21216;DHT22;10765;50.954;5.322;2022-12-11T08:17:22;1.90;99.90
21216;DHT22;10765;50.954;5.322;2022-12-11T08:19:51;1.90;99.90
21216;DHT22;10765;50.954;5.322;2022-12-11T08:22:18;1.80;86.90
21216;DHT22;10765;50.954;5.322;2022-12-11T08:24:46;1.70;99.90
21216;DHT22;10765;50.954;5.322;2022-12-11T08:27:13;1.70;99.90
21216;DHT22;10765;50.954;5.322;2022-12-11T08:29:40;1.90;99.90
21216;DHT22;10765;50.954;5.322;2022-12-11T08:32:07;2.00;99.90
21216;DHT22;10765;50.954;5.322;2022-12-11T08:34:34;2.10;86.70
21216;DHT22;10765;50.954;5.322;2022-12-11T08:37:02;2.00;40.60
21216;DHT22;10765;50.954;5.322;2022-12-11T08:39:29;2.00;58.80
21216;DHT22;10765;50.954;5.322;2022-12-11T08:41:56;1.90;93.50
21216;DHT22;10765;50.954;5.322;2022-12-11T08:44:23;2.20;99.90
21216;DHT22;10765;50.954;5.322;2022-12-11T08:46:51;2.40;32.90
21216;DHT22;10765;50.954;5.322;2022-12-11T08:49:18;2.40;1.00
21216;DHT22;10765;50.954;5.322;2022-12-11T08:51:45;2.30;1.00
21216;DHT22;10765;50.954;5.322;2022-12-11T08:54:14;2.20;1.00
21216;DHT22;10765;50.954;5.322;2022-12-11T08:56:40;2.10;5.50
21216;DHT22;10765;50.954;5.322;2022-12-11T08:59:07;2.20;36.50
21216;DHT22;10765;50.954;5.322;2022-12-11T09:01:34;2.20;6.40
21216;DHT22;10765;50.954;5.322;2022-12-11T09:04:01;2.00;1.70
21216;DHT22;10765;50.954;5.322;2022-12-11T09:06:29;1.90;20.50
21216;DHT22;10765;50.954;5.322;2022-12-11T09:08:59;2.00;21.70
21216;DHT22;10765;50.954;5.322;2022-12-11T09:11:29;2.00;9.90
21216;DHT22;10765;50.954;5.322;2022-12-11T09:13:56;2.10;1.00
21216;DHT22;10765;50.954;5.322;2022-12-11T09:16:25;2.10;1.00
21216;DHT22;10765;50.954;5.322;2022-12-11T09:18:54;2.10;1.00
21216;DHT22;10765;50.954;5.322;2022-12-11T09:21:22;2.30;8.00
21216;DHT22;10765;50.954;5.322;2022-12-11T09:23:52;2.50;1.00
21216;DHT22;10765;50.954;5.322;2022-12-11T09:26:19;2.50;1.00
21216;DHT22;10765;50.954;5.322;2022-12-11T09:28:47;2.40;1.00
21216;DHT22;10765;50.954;5.322;2022-12-11T09:31:17;2.30;1.00
21216;DHT22;10765;50.954;5.322;2022-12-11T09:33:45;2.30;1.00
21216;DHT22;10765;50.954;5.322;2022-12-11T09:36:12;2.50;1.00
21216;DHT22;10765;50.954;5.322;2022-12-11T09:38:39;2.70;1.00
21216;DHT22;10765;50.954;5.322;2022-12-11T09:41:26;2.90;1.00
21216;DHT22;10765;50.954;5.322;2022-12-11T09:44:04;2.90;1.00
21216;DHT22;10765;50.954;5.322;2022-12-11T09:46:33;2.90;1.00
21216;DHT22;10765;50.954;5.322;2022-12-11T09:49:02;3.10;1.00
21216;DHT22;10765;50.954;5.322;2022-12-11T09:51:38;2.70;1.00
21216;DHT22;10765;50.954;5.322;2022-12-11T09:54:05;2.50;1.00
21216;DHT22;10765;50.954;5.322;2022-12-11T09:56:35;2.50;1.00
21216;DHT22;10765;50.954;5.322;2022-12-11T09:59:15;2.50;1.00
21216;DHT22;10765;50.954;5.322;2022-12-11T10:01:50;2.50;1.00
21216;DHT22;10765;50.954;5.322;2022-12-11T10:04:34;2.50;1.00
21216;DHT22;10765;50.954;5.322;2022-12-11T10:07:10;2.50;1.00
21216;DHT22;10765;50.954;5.322;2022-12-11T10:09:42;2.80;1.00
21216;DHT22;10765;50.954;5.322;2022-12-11T10:12:36;3.00;1.00
21216;DHT22;10765;50.954;5.322;2022-12-11T10:15:23;3.10;1.00
21216;DHT22;10765;50.954;5.322;2022-12-11T10:17:54;3.20;1.00
21216;DHT22;10765;50.954;5.322;2022-12-11T10:20:24;3.00;1.00
21216;DHT22;10765;50.954;5.322;2022-12-11T10:22:53;3.20;1.00
21216;DHT22;10765;50.954;5.322;2022-12-11T10:25:24;2.80;1.00
21216;DHT22;10765;50.954;5.322;2022-12-11T10:27:52;2.50;1.00
21216;DHT22;10765;50.954;5.322;2022-12-11T10:30:22;2.30;1.00
21216;DHT22;10765;50.954;5.322;2022-12-11T10:32:53;2.40;1.00
21216;DHT22;10765;50.954;5.322;2022-12-11T10:35:28;2.60;1.00
21216;DHT22;10765;50.954;5.322;2022-12-11T10:38:05;2.60;1.00
21216;DHT22;10765;50.954;5.322;2022-12-11T10:40:36;2.70;1.00
21216;DHT22;10765;50.954;5.322;2022-12-11T10:43:03;2.90;1.00
21216;DHT22;10765;50.954;5.322;2022-12-11T10:45:32;2.80;1.00
21216;DHT22;10765;50.954;5.322;2022-12-11T10:48:03;3.00;1.00
21216;DHT22;10765;50.954;5.322;2022-12-11T10:50:30;3.00;1.00
21216;DHT22;10765;50.954;5.322;2022-12-11T10:52:57;2.80;1.00
21216;DHT22;10765;50.954;5.322;2022-12-11T10:55:27;2.70;1.00
21216;DHT22;10765;50.954;5.322;2022-12-11T10:57:57;2.80;1.00
21216;DHT22;10765;50.954;5.322;2022-12-11T11:00:29;3.00;1.00
21216;DHT22;10765;50.954;5.322;2022-12-11T11:02:58;3.20;1.00
21216;DHT22;10765;50.954;5.322;2022-12-11T11:05:31;3.10;1.00
21216;DHT22;10765;50.954;5.322;2022-12-11T11:08:09;3.10;1.00
21216;DHT22;10765;50.954;5.322;2022-12-11T11:10:48;3.00;1.00
21216;DHT22;10765;50.954;5.322;2022-12-11T11:13:15;2.80;1.00
21216;DHT22;10765;50.954;5.322;2022-12-11T11:15:42;2.80;1.00
21216;DHT22;10765;50.954;5.322;2022-12-11T11:18:13;2.70;1.00
21216;DHT22;10765;50.954;5.322;2022-12-11T11:20:46;2.80;1.00
21216;DHT22;10765;50.954;5.322;2022-12-11T11:23:14;2.80;1.00
21216;DHT22;10765;50.954;5.322;2022-12-11T11:25:49;2.70;1.00
21216;DHT22;10765;50.954;5.322;2022-12-11T11:28:18;3.00;1.00
21216;DHT22;10765;50.954;5.322;2022-12-11T11:30:56;3.10;1.00
21216;DHT22;10765;50.954;5.322;2022-12-11T11:33:26;2.90;1.00
21216;DHT22;10765;50.954;5.322;2022-12-11T11:35:55;2.50;1.00
21216;DHT22;10765;50.954;5.322;2022-12-11T11:38:25;2.50;1.00
21216;DHT22;10765;50.954;5.322;2022-12-11T11:40:57;2.60;1.00
21216;DHT22;10765;50.954;5.322;2022-12-11T11:43:33;2.70;1.00
21216;DHT22;10765;50.954;5.322;2022-12-11T11:46:06;2.60;1.00
21216;DHT22;10765;50.954;5.322;2022-12-11T11:48:42;2.70;1.00
21216;DHT22;10765;50.954;5.322;2022-12-11T11:51:15;2.90;1.00
21216;DHT22;10765;50.954;5.322;2022-12-11T11:53:47;3.10;1.00
21216;DHT22;10765;50.954;5.322;2022-12-11T11:56:22;3.20;1.00
21216;DHT22;10765;50.954;5.322;2022-12-11T11:59:02;3.00;1.00
21216;DHT22;10765;50.954;5.322;2022-12-11T12:01:31;2.90;1.00
21216;DHT22;10765;50.954;5.322;2022-12-11T12:04:02;2.90;1.00
21216;DHT22;10765;50.954;5.322;2022-12-11T12:06:37;3.10;1.00
21216;DHT22;10765;50.954;5.322;2022-12-11T12:09:16;3.20;1.00
21216;DHT22;10765;50.954;5.322;2022-12-11T12:11:48;3.00;1.00
21216;DHT22;10765;50.954;5.322;2022-12-11T12:14:20;2.90;1.00
21216;DHT22;10765;50.954;5.322;2022-12-11T12:16:59;3.10;1.00
21216;DHT22;10765;50.954;5.322;2022-12-11T12:19:41;3.20;1.00
21216;DHT22;10765;50.954;5.322;2022-12-11T12:22:20;3.20;1.00
21216;DHT22;10765;50.954;5.322;2022-12-11T12:25:01;2.90;1.00
21216;DHT22;10765;50.954;5.322;2022-12-11T12:27:34;2.70;1.00
21216;DHT22;10765;50.954;5.322;2022-12-11T12:30:07;2.90;1.00
21216;DHT22;10765;50.954;5.322;2022-12-11T12:32:45;3.00;1.00
21216;DHT22;10765;50.954;5.322;2022-12-11T12:35:29;3.10;1.00
21216;DHT22;10765;50.954;5.322;2022-12-11T12:38:09;3.10;1.00
21216;DHT22;10765;50.954;5.322;2022-12-11T12:40:46;3.00;1.00
21216;DHT22;10765;50.954;5.322;2022-12-11T12:46:18;2.90;1.00
21216;DHT22;10765;50.954;5.322;2022-12-11T12:48:47;2.90;1.00
21216;DHT22;10765;50.954;5.322;2022-12-11T12:51:17;3.10;1.00
21216;DHT22;10765;50.954;5.322;2022-12-11T12:53:48;3.30;1.00
21216;DHT22;10765;50.954;5.322;2022-12-11T12:56:15;3.10;1.00
21216;DHT22;10765;50.954;5.322;2022-12-11T12:58:44;3.00;1.00
21216;DHT22;10765;50.954;5.322;2022-12-11T13:01:15;2.90;1.00
21216;DHT22;10765;50.954;5.322;2022-12-11T13:03:54;2.80;1.00
21216;DHT22;10765;50.954;5.322;2022-12-11T13:06:31;2.90;1.00
21216;DHT22;10765;50.954;5.322;2022-12-11T13:09:11;3.00;1.00
21216;DHT22;10765;50.954;5.322;2022-12-11T13:11:39;2.90;1.00
21216;DHT22;10765;50.954;5.322;2022-12-11T13:14:21;3.00;1.00
21216;DHT22;10765;50.954;5.322;2022-12-11T13:16:52;3.30;1.00
21216;DHT22;10765;50.954;5.322;2022-12-11T13:19:32;3.60;1.00
21216;DHT22;10765;50.954;5.322;2022-12-11T13:22:16;4.00;1.00
21216;DHT22;10765;50.954;5.322;2022-12-11T13:24:46;4.00;1.00
21216;DHT22;10765;50.954;5.322;2022-12-11T13:27:24;3.90;1.00
21216;DHT22;10765;50.954;5.322;2022-12-11T13:30:04;4.00;1.00
21216;DHT22;10765;50.954;5.322;2022-12-11T13:32:32;4.30;1.00
21216;DHT22;10765;50.954;5.322;2022-12-11T13:35:04;4.70;1.00
21216;DHT22;10765;50.954;5.322;2022-12-11T13:37:35;5.60;1.00
21216;DHT22;10765;50.954;5.322;2022-12-11T13:40:07;6.50;1.00
21216;DHT22;10765;50.954;5.322;2022-12-11T13:42:39;7.60;1.00
21216;DHT22;10765;50.954;5.322;2022-12-11T13:45:18;7.80;1.00
21216;DHT22;10765;50.954;5.322;2022-12-11T13:47:46;7.20;1.00
21216;DHT22;10765;50.954;5.322;2022-12-11T13:50:17;9.10;1.00
21216;DHT22;10765;50.954;5.322;2022-12-11T13:52:53;11.60;1.00
21216;DHT22;10765;50.954;5.322;2022-12-11T13:55:23;11.10;1.00
21216;DHT22;10765;50.954;5.322;2022-12-11T13:57:50;9.70;1.00
21216;DHT22;10765;50.954;5.322;2022-12-11T14:00:20;8.10;1.00
21216;DHT22;10765;50.954;5.322;2022-12-11T14:02:48;7.90;1.00
21216;DHT22;10765;50.954;5.322;2022-12-11T14:05:16;6.90;1.00
21216;DHT22;10765;50.954;5.322;2022-12-11T14:07:47;6.10;1.00
21216;DHT22;10765;50.954;5.322;2022-12-11T14:10:19;5.20;1.00
21216;DHT22;10765;50.954;5.322;2022-12-11T14:12:50;4.30;1.00
21216;DHT22;10765;50.954;5.322;2022-12-11T14:15:18;3.30;1.00
21216;DHT22;10765;50.954;5.322;2022-12-11T14:17:45;3.20;1.00
21216;DHT22;10765;50.954;5.322;2022-12-11T14:20:16;3.30;1.00
21216;DHT22;10765;50.954;5.322;2022-12-11T14:22:44;3.40;1.00
21216;DHT22;10765;50.954;5.322;2022-12-11T14:25:22;3.30;1.00
21216;DHT22;10765;50.954;5.322;2022-12-11T14:27:51;3.20;1.00
21216;DHT22;10765;50.954;5.322;2022-12-11T14:30:23;3.10;1.00
21216;DHT22;10765;50.954;5.322;2022-12-11T14:32:53;3.10;1.00
21216;DHT22;10765;50.954;5.322;2022-12-11T14:35:24;3.10;1.00
21216;DHT22;10765;50.954;5.322;2022-12-11T14:37:52;3.10;1.00
21216;DHT22;10765;50.954;5.322;2022-12-11T14:40:23;3.10;1.00
21216;DHT22;10765;50.954;5.322;2022-12-11T14:42:55;3.10;1.00
21216;DHT22;10765;50.954;5.322;2022-12-11T14:45:29;3.30;1.00
21216;DHT22;10765;50.954;5.322;2022-12-11T14:48:00;3.30;1.00
21216;DHT22;10765;50.954;5.322;2022-12-11T14:50:35;3.40;1.00
21216;DHT22;10765;50.954;5.322;2022-12-11T14:53:07;3.30;1.00
21216;DHT22;10765;50.954;5.322;2022-12-11T14:55:37;3.30;1.00
21216;DHT22;10765;50.954;5.322;2022-12-11T14:58:11;3.10;1.00
21216;DHT22;10765;50.954;5.322;2022-12-11T15:00:40;2.90;1.00
21216;DHT22;10765;50.954;5.322;2022-12-11T15:03:21;2.90;1.00
21216;DHT22;10765;50.954;5.322;2022-12-11T15:05:50;2.80;1.00
21216;DHT22;10765;50.954;5.322;2022-12-11T15:08:19;2.80;1.00
21216;DHT22;10765;50.954;5.322;2022-12-11T15:11:00;2.80;1.00
21216;DHT22;10765;50.954;5.322;2022-12-11T15:13:27;2.90;1.00
21216;DHT22;10765;50.954;5.322;2022-12-11T15:15:55;3.00;1.00
21216;DHT22;10765;50.954;5.322;2022-12-11T15:18:25;2.90;1.00
21216;DHT22;10765;50.954;5.322;2022-12-11T15:20:55;2.90;1.00
21216;DHT22;10765;50.954;5.322;2022-12-11T15:23:22;2.90;1.00
21216;DHT22;10765;50.954;5.322;2022-12-11T15:25:50;2.90;1.00
21216;DHT22;10765;50.954;5.322;2022-12-11T15:28:27;3.00;1.00
21216;DHT22;10765;50.954;5.322;2022-12-11T15:30:57;2.80;1.00
21216;DHT22;10765;50.954;5.322;2022-12-11T15:33:25;2.70;1.00
21216;DHT22;10765;50.954;5.322;2022-12-11T15:35:57;2.70;1.00
21216;DHT22;10765;50.954;5.322;2022-12-11T15:38:30;2.60;1.00
21216;DHT22;10765;50.954;5.322;2022-12-11T15:40:58;2.40;1.00
21216;DHT22;10765;50.954;5.322;2022-12-11T15:43:27;2.40;1.00
21216;DHT22;10765;50.954;5.322;2022-12-11T15:45:54;2.50;1.00
21216;DHT22;10765;50.954;5.322;2022-12-11T15:48:21;2.50;1.00
21216;DHT22;10765;50.954;5.322;2022-12-11T15:50:48;2.60;1.00
21216;DHT22;10765;50.954;5.322;2022-12-11T15:53:15;2.60;1.00
21216;DHT22;10765;50.954;5.322;2022-12-11T15:55:42;2.50;1.00
21216;DHT22;10765;50.954;5.322;2022-12-11T15:58:13;2.50;1.00
21216;DHT22;10765;50.954;5.322;2022-12-11T16:00:42;2.50;1.00
21216;DHT22;10765;50.954;5.322;2022-12-11T16:03:11;2.50;1.00
21216;DHT22;10765;50.954;5.322;2022-12-11T16:05:39;2.50;1.00
21216;DHT22;10765;50.954;5.322;2022-12-11T16:08:06;2.60;1.00
21216;DHT22;10765;50.954;5.322;2022-12-11T16:10:33;2.70;1.00
21216;DHT22;10765;50.954;5.322;2022-12-11T16:13:00;2.70;1.00
21216;DHT22;10765;50.954;5.322;2022-12-11T16:15:28;2.70;1.00